Regent: Past 24 Hour Conditions

 

Gjoa Haven Airport

11:00 PM MDT 24 April 2014
This table is a summary of hourly weather conditions for the past 24 hours.
Date / Time
(MDT)
Wind(knots) Conditions Visibility(km) Pressure(kPa) Air tempC) Relative humidity(%) Dew pointC) Wind Chill
24 April 2014
23:00 N 12 Clear 16 103.0 -24 82 -26 -36
22:00 NNW 16 Clear 16 103.0 -23 82 -25 -37
21:00 NNW 12 Clear 16 103.0 -22 82 -25 -34
20:00 NW 8 Sunny 16 103.1 -22 83 -24 -31
19:00 NNW 14 Sunny 16 103.0 -20 83 -23 -32
18:00 NNW 11 Sunny 24 103.1 -19 83 -22 -30
17:00 NNW 11 Sunny 24 103.1 -19 83 -21 -29
16:00 NW 12 Mainly Sunny 24 103.0 -19 83 -21 -29
15:00 NW 11 Sunny 24 103.0 -18 84 -21 -29
14:00 NW 9 Ice Crystals 24 103.0 -18 84 -20 -28
13:00 NNW 9 Ice Crystals 24 103.1 -18 85 -20 -27
12:00 NW 9 Ice Crystals 24 103.0 -18 85 -20 -28
11:00 NW 11 Ice Crystals 24 103.0 -19 85 -21 -29
10:00 NNW 11 Ice Crystals 24 103.0 -20 84 -22 -30
9:00 NNW 13 Ice Crystals 15 103.0 -20 84 -22 -32
8:00 NNW 13 Ice Crystals 13 103.0 -21 83 -24 -33
7:00 NNW 12 Ice Crystals 11 103.0 -23 82 -25 -35
6:00 NNW 13 Ice Crystals 24 103.0 -23 81 -26 -36
5:00 NNW 13 Light Snow 10 102.9 -23 81 -26 -36
4:00 NNW 15 Sunny 16 102.9 -23 82 -25 -36
3:00 NNW 16 Clear 16 102.8 -22 84 -24 -35
2:00 NW 13 Clear 16 102.8 -20 84 -22 -31
1:00 WNW 7 Cloudy 16 102.8 -17 87 -19 -25
0:00 NW 8 Light Snow 16 102.8 -16 89 -17 -24
23 April 2014
23:00 NW 11 Light Snow 16 102.7 -16 88 -18 -26
 
Map of Arctic - Eastern Arctic marine weather areas Baker Lake Airport Chesterfield Inlet Airport Coral Harbour Airport Gjoa Haven Airport Kugaaruk Airport Rankin Inlet Airport Shepherd Bay Airport Whale Cove Airport Arctic Bay Brevoort Island Qikiqtarjuaq Airport Cape Dorset Airport Cape Dyer Cape Hooper Clyde Airport Grise Fiord Airport Hall Beach Airport Igloolik Airport Iqaluit Airport Longstaff Bluff Pangnirtung Airport Pond Inlet Airport Repulse Bay Airport Resolute Airport Resolution Island Rowley Island Airport Taloyoak Airport Wager Bay Akulivik Airport Ivujivik Airport Puvirnituq Airport Kangiqsujuaq Airport Kangirsuk Airport Quaqtaq Airport Tasiujaq Airport Cape Kakkiviak Cape Kiglapait Nain Airport Saglek Cape Mercy Kimmirut Airport Aupaluk Airport Salluit Airport Kangiqsualujjuaq Airport Fort Ross
Legend: buoyBuoy land stationLand Station